Douai Centre Hospitalier

FR-0708 · Norte, Hauts-de-France, Francia

METAR pasados FR-0708 · Douai Centre Hospitalier

A continuación puedes ver los METAR de los últimos días. Selecciona un año para ver los METAR más antiguos, desde el año 2007 en adelante.

18 de julio de 2024

Hora Código Tiempo Temp. Visibilidad Cielo nuboso Viento METAR/SPECI
00:30
V
17 °C 10 km+ - 030° 030° 6 kt METAR LFQQ 172230Z AUTO 03006KT CAVOK 17/14 Q1022 NOSIG
00:00
V
18 °C 10 km+ - 030° 030° 5 kt METAR LFQQ 172200Z AUTO 03005KT CAVOK 18/14 Q1022 NOSIG

17 de julio de 2024

Hora Código Tiempo Temp. Visibilidad Cielo nuboso Viento METAR/SPECI
23:30
V
18 °C 10 km+ - 040° 040° 5 kt METAR LFQQ 172130Z AUTO 04005KT CAVOK 18/14 Q1022 NOSIG
23:00
V
19 °C 10 km+ - 040° 040° 6 kt METAR LFQQ 172100Z AUTO 04006KT CAVOK 19/14 Q1022 NOSIG
22:30
V
19 °C 10 km+ - 040° 040° 7 kt METAR LFQQ 172030Z AUTO 04007KT CAVOK 19/14 Q1022 NOSIG
22:00
V
20 °C 10 km+ - 050° 050° 7 kt METAR LFQQ 172000Z AUTO 05007KT CAVOK 20/15 Q1022 NOSIG
21:30
V
21 °C 10 km+ - 040° 040° 6 kt METAR LFQQ 171930Z AUTO 04006KT CAVOK 21/14 Q1022 NOSIG
21:00
V
22 °C 10 km+ - 360° 360° 6 kt METAR LFQQ 171900Z AUTO 36006KT CAVOK 22/15 Q1021 NOSIG
20:30
V
22 °C 10 km+ - 010° 010° 6 kt METAR LFQQ 171830Z AUTO 01006KT 330V030 CAVOK 22/15 Q1021 NOSIG
20:00
V
23 °C 10 km+ - 360° 360° 7 kt METAR LFQQ 171800Z AUTO 36007KT 320V020 CAVOK 23/15 Q1021 NOSIG
19:30
V
24 °C 10 km+ - 310° 310° 7 kt METAR LFQQ 171730Z AUTO 31007KT 9999 FEW043 24/15 Q1021 NOSIG
19:00
V
24 °C 10 km+ - 340° 340° 5 kt METAR LFQQ 171700Z AUTO 34005KT 290V050 CAVOK 24/14 Q1021 TEMPO 4500 SHRA BKN035TCU
18:30
V
25 °C 10 km+ - 260° 260° 6 kt METAR LFQQ 171630Z AUTO 26006KT 210V300 CAVOK 25/12 Q1021 TEMPO 4500 SHRA BKN035TCU
18:00
V
25 °C 10 km+ - 270° 270° 4 kt METAR LFQQ 171600Z AUTO 27004KT 230V310 9999 FEW001 25/12 Q1021 TEMPO 4500 SHRA BKN035TCU
17:30
V
25 °C 10 km+ - 250° 250° 6 kt METAR LFQQ 171530Z AUTO 25006KT 200V310 CAVOK 25/12 Q1021 TEMPO 4500 SHRA BKN035TCU
17:00
V
25 °C 10 km+ - 240° 240° 7 kt METAR LFQQ 171500Z AUTO 24007KT 190V280 CAVOK 25/13 Q1021 TEMPO 4500 SHRA BKN035TCU
16:30
V
24 °C 10 km+ 5.600 ft 250° 250° 6 kt METAR LFQQ 171430Z AUTO 25006KT 210V290 9999 SCT047 BKN056 BKN068 24/13 Q1021 TEMPO 4500 SHRA BKN035TCU
16:00
V
24 °C 10 km+ 4.400 ft 250° 250° 7 kt METAR LFQQ 171400Z AUTO 25007KT 200V290 9999 BKN044 BKN054 BKN070 24/14 Q1021 TEMPO 4500 SHRA BKN035TCU
15:30
V
24 °C 10 km+ - 220° 220° 7 kt METAR LFQQ 171330Z AUTO 22007KT 160V270 9999 SCT040 SCT058 24/14 Q1021 TEMPO 4500 SHRA BKN035TCU
15:00
V
25 °C 10 km+ 6.800 ft 230° 230° 8 kt METAR LFQQ 171300Z AUTO 23008KT 160V270 9999 FEW040 SCT058 BKN068 25/15 Q1021 TEMPO 4500 SHRA BKN035TCU
14:30
V
24 °C 10 km+ 6.400 ft 240° 240° 7 kt METAR LFQQ 171230Z AUTO 24007KT 160V290 9999 FEW041 SCT052 BKN064 24/13 Q1021 TEMPO 4500 SHRA BKN035TCU
14:00
V
24 °C 10 km+ - 210° 210° 7 kt METAR LFQQ 171200Z AUTO 21007KT 120V250 9999 SCT038 24/14 Q1021 TEMPO 4500 SHRA BKN035TCU
13:30
V
22 °C 10 km+ - 260° 260° 8 kt METAR LFQQ 171130Z AUTO 26008KT 230V290 9999 FEW030 22/13 Q1021 TEMPO 4500 SHRA BKN035TCU
13:00
V
22 °C 10 km+ 3.200 ft 270° 270° 7 kt METAR LFQQ 171100Z AUTO 27007KT 210V300 9999 SCT027 BKN032 BKN039 22/14 Q1021 TEMPO 4500 SHRA BKN035TCU
12:30
M
21 °C 10 km+ 2.700 ft 250° 250° 8 kt METAR LFQQ 171030Z AUTO 25008KT 190V280 9999 BKN027 BKN044 BKN054 21/15 Q1021 TEMPO 4500 SHRA BKN035TCU
12:00
M
21 °C 10 km+ 2.400 ft 260° 260° 6 kt METAR LFQQ 171000Z AUTO 26006KT 230V290 9999 BKN024 BKN032 BKN042 21/15 Q1021 TEMPO 4500 SHRA BKN035TCU
11:30
M
21 °C 10 km+ 2.400 ft 250° 250° 3 kt METAR LFQQ 170930Z AUTO 25003KT 210V290 9999 BKN024 BKN032 BKN047 21/15 Q1021 TEMPO 4500 SHRA BKN035TCU
11:00
M
20 °C 10 km+ 2.900 ft 230° 230° 5 kt METAR LFQQ 170900Z AUTO 23005KT 170V290 9999 SCT020 BKN029 BKN034 20/15 Q1021 TEMPO 4500 SHRA BKN035TCU
10:30
M
20 °C 10 km+ 1.800 ft 210° 210° 4 kt METAR LFQQ 170830Z AUTO 21004KT 170V250 9999 BKN018 BKN025 BKN046 20/15 Q1021 TEMPO 4500 SHRA BKN035TCU
10:00
M
20 °C 10 km+ 1.500 ft 210° 210° 4 kt METAR LFQQ 170800Z AUTO 21004KT 130V270 9999 BKN015 BKN020 20/16 Q1020 TEMPO BKN013
09:30
V
19 °C 10 km+ - 160° 160° 3 kt METAR LFQQ 170730Z AUTO 16003KT 130V200 9999 FEW011 19/16 Q1020 TEMPO BKN013
09:00
V
18 °C 10 km+ - 240° 240° 4 kt METAR LFQQ 170700Z AUTO 24004KT 200V280 9999 SCT010 18/15 Q1020 TEMPO BKN013
08:30
V
18 °C 10 km+ - 250° 250° 4 kt METAR LFQQ 170630Z AUTO 25004KT 200V290 9999 FEW007 18/16 Q1020 TEMPO BKN013
08:00
V
17 °C 10 km+ - 250° 250° 4 kt METAR LFQQ 170600Z AUTO 25004KT 220V290 9999 FEW006 17/15 Q1019 TEMPO BKN013
07:30
V
16 °C 10 km+ - Var Var 2 kt METAR LFQQ 170530Z AUTO VRB02KT 9999 FEW029 16/15 Q1019 TEMPO BKN013
07:00
V
15 °C 8 km 3.700 ft 230° 230° 3 kt METAR LFQQ 170500Z AUTO 23003KT 8000 FEW014 BKN037 15/15 Q1019 TEMPO BKN007
06:30
M
15 °C 7 km 3.100 ft 230° 230° 3 kt METAR LFQQ 170430Z AUTO 23003KT 7000 BKN031 15/15 Q1019 TEMPO BKN007
06:00
V
15 °C 8 km - Var Var 2 kt METAR LFQQ 170400Z AUTO VRB02KT 8000 NSC 15/15 Q1018 TEMPO BKN007
05:30
V
16 °C 10 km+ 24.000 ft 260° 260° 5 kt METAR LFQQ 170330Z AUTO 26005KT 9999 SCT009 SCT210 BKN240 16/14 Q1018 TEMPO BKN007
05:00
I
16 °C 10 km+ 900 ft 260° 260° 6 kt METAR LFQQ 170300Z AUTO 26006KT 9999 BKN009 OVC098 16/15 Q1018 NOSIG
04:30
V
16 °C 10 km+ 8.200 ft 250° 250° 4 kt METAR LFQQ 170230Z AUTO 25004KT 9999 FEW011 BKN082 OVC100 16/15 Q1017 TEMPO BKN007
04:00
V
16 °C 10 km+ 9.800 ft 240° 240° 4 kt METAR LFQQ 170200Z AUTO 24004KT 9999 FEW011 OVC098 16/15 Q1017 TEMPO BKN007
03:30
M
16 °C 10 km+ 1.100 ft 230° 230° 3 kt METAR LFQQ 170130Z AUTO 23003KT 9999 BKN011 OVC100 16/15 Q1017 TEMPO BKN007
03:00
V
16 °C 10 km+ 10.000 ft 220° 220° 4 kt METAR LFQQ 170100Z AUTO 22004KT 9999 SCT011 SCT045 BKN100 16/15 Q1017 TEMPO BKN007
02:30
V
16 °C 10 km+ - 250° 250° 5 kt METAR LFQQ 170030Z AUTO 25005KT 9999 FEW012 SCT082 16/14 Q1017 TEMPO BKN007
02:00
V
16 °C 10 km+ 8.000 ft 240° 240° 6 kt METAR LFQQ 170000Z AUTO 24006KT 9999 SCT013 BKN080 16/14 Q1017 TEMPO BKN007
01:30
M
17 °C 10 km+ 1.400 ft 240° 240° 7 kt METAR LFQQ 162330Z AUTO 24007KT 9999 BKN014 BKN029 BKN049 17/14 Q1017 TEMPO BKN007
01:00
M
17 °C 10 km+ 1.500 ft 230° 230° 7 kt METAR LFQQ 162300Z AUTO 23007KT 9999 BKN015 BKN060 OVC074 17/14 Q1016 TEMPO BKN013
00:30
M
17 °C 10 km+ 1.600 ft 240° 240° 7 kt METAR LFQQ 162230Z AUTO 24007KT 9999 BKN016 BKN041 BKN048 17/14 Q1016 TEMPO BKN013
00:00
V
17 °C 10 km+ 5.200 ft 230° 230° 8 kt METAR LFQQ 162200Z AUTO 23008KT 190V250 9999 FEW015 OVC052 17/15 Q1016 TEMPO BKN013

16 de julio de 2024

Hora Código Tiempo Temp. Visibilidad Cielo nuboso Viento METAR/SPECI
23:30
V
17 °C 10 km+ - 220° 220° 7 kt METAR LFQQ 162130Z AUTO 22007KT 200V260 CAVOK 17/14 Q1016 TEMPO BKN013
23:00
V
17 °C 10 km+ 4.800 ft 220° 220° 7 kt METAR LFQQ 162100Z AUTO 22007KT 9999 FEW017 OVC048 17/14 Q1016 TEMPO BKN013
22:30
V
17 °C 10 km+ 4.400 ft 230° 230° 7 kt METAR LFQQ 162030Z AUTO 23007KT 9999 SCT019 BKN044 17/14 Q1016 TEMPO BKN013
22:00
V
17 °C 10 km+ 4.400 ft 240° 240° 10 kt METAR LFQQ 162000Z AUTO 24010KT 9999 FEW021 BKN044 17/13 Q1016 TEMPO BKN013
21:30
M
17 °C 10 km+ 2.200 ft 240° 240° 12 kt METAR LFQQ 161930Z AUTO 24012KT 9999 BKN022 17/14 Q1015 TEMPO BKN013
21:00
M
18 °C 10 km+ 2.100 ft 240° 240° 14 kt METAR LFQQ 161900Z AUTO 24014KT 9999 OVC021 18/13 Q1015 TEMPO 24015G25KT BKN013
20:30
M
18 °C 10 km+ 2.100 ft 250° 250° 14 kt METAR LFQQ 161830Z AUTO 25014KT 9999 BKN021 OVC030 18/14 Q1015 TEMPO 24015G25KT BKN013
20:00
M
19 °C 10 km+ 2.400 ft 250° 250° 16 kt METAR LFQQ 161800Z AUTO 25016KT 9999 BKN024 BKN068 19/14 Q1014 TEMPO 24015G25KT
19:30
M
19 °C 10 km+ 2.300 ft 240° 240° 16 kt METAR LFQQ 161730Z AUTO 24016KT 200V260 9999 BKN023 BKN032 BKN054 19/14 Q1014 TEMPO 24015G25KT
19:00
M
18 °C 10 km+ 2.300 ft 240° 240° 15 - 26 kt METAR LFQQ 161700Z AUTO 24015G26KT 9999 FEW010 BKN023 BKN042 18/13 Q1014 BECMG 24013KT
18:30
M
19 °C 10 km+ 2.700 ft 240° 240° 15 - 28 kt METAR LFQQ 161630Z AUTO 24015G28KT 9999 BKN027 BKN041 OVC062 19/13 Q1013 BECMG 24013KT
18:00
V
20 °C 10 km+ 3.100 ft 250° 250° 18 kt METAR LFQQ 161600Z AUTO 25018KT 9999 BKN031 BKN040 OVC066 20/13 Q1013 TEMPO 26020G30KT
17:30
V
20 °C 10 km+ 3.700 ft 240° 240° 20 kt METAR LFQQ 161530Z AUTO 24020KT 9999 BKN037 BKN052 BKN066 20/12 Q1013 TEMPO 26020G30KT
17:00
V
21 °C 10 km+ 3.500 ft 240° 240° 19 - 29 kt METAR LFQQ 161500Z AUTO 24019G29KT 9999 BKN035 BKN042 BKN048 21/12 Q1012 NOSIG
16:30
V
20 °C 10 km+ 3.200 ft 240° 240° 18 kt METAR LFQQ 161430Z AUTO 24018KT 9999 BKN032 BKN041 BKN047 20/13 Q1012 TEMPO 26020G30KT
16:00
M
20 °C 10 km+ 3.000 ft 230° 230° 16 kt METAR LFQQ 161400Z AUTO 23016KT 190V260 9999 SCT025/// BKN030/// BKN035/// ///CB 20/14 Q1012 TEMPO 26020G30KT 3000 SHRA BECMG BKN025
15:30
M
20 °C 10 km+ 2.300 ft 230° 230° 14 kt METAR LFQQ 161330Z AUTO 23014KT 190V260 9999 BKN023/// BKN029/// BKN037/// ///CB 20/14 Q1012 TEMPO 26020G30KT 3000 SHRA BECMG BKN025
15:00
I
19 °C 3,3 km 6.000 ft 210° 210° 15 kt METAR LFQQ 161300Z AUTO 21015KT 8000 3300 FEW018/// SCT025/// BKN060/// //////CB 19/15 Q1012 TEMPO 24020G30KT 3000 SHRA SCT007 BKN012 BKN020CB
14:30
I
18 °C 3,2 km 3.100 ft 230° 230° 12 kt METAR LFQQ 161230Z AUTO 23012KT 200V260 9999 3200 FEW007/// SCT023/// BKN031/// ///CB 18/16 Q1012 TEMPO 24020G30KT 3000 SHRA SCT007 BKN012 BKN020CB
14:00
V
19 °C 10 km+ 5.200 ft 230° 230° 11 kt METAR LFQQ 161200Z AUTO 23011KT 200V260 9999 FEW011/// BKN052/// BKN062/// ///CB 19/14 Q1012 TEMPO 24020G30KT 3000 SHRA SCT007 BKN012 BKN020CB
13:30
M
19 °C 10 km+ 2.600 ft 230° 230° 12 kt METAR LFQQ 161130Z AUTO 23012KT 190V260 9999 BKN026/// BKN033/// BKN088/// ///CB 19/14 Q1011 TEMPO 23020G30KT 3000 SHRA SCT009 BKN013 BKN020CB
13:00
M
18 °C 10 km+ 2.400 ft 220° 220° 11 kt METAR LFQQ 161100Z AUTO 22011KT 9999 BKN024/// BKN030/// BKN160/// ///TCU 18/14 Q1011 TEMPO 23020G30KT 3000 SHRA SCT009 BKN013 BKN020CB
12:30
M
18 °C 10 km+ 2.300 ft 230° 230° 10 kt METAR LFQQ 161030Z AUTO 23010KT 9999 BKN023 BKN028 BKN036 18/15 Q1011 TEMPO 23020G30KT 3000 SHRA SCT009 BKN013 BKN020CB
12:00
M
17 °C 10 km+ 2.400 ft 220° 220° 13 kt METAR LFQQ 161000Z AUTO 22013KT 190V250 9999 -RA BKN024/// BKN031/// OVC058/// //////CB 17/14 Q1011 TEMPO 23020G30KT 3000 SHRA SCT009 BKN013 BKN020CB
11:30
M
18 °C 10 km+ 2.500 ft 210° 210° 14 kt METAR LFQQ 160930Z AUTO 21014KT 190V250 9999 BKN025/// BKN030/// BKN036/// //////CB 18/13 Q1010 TEMPO 23020G30KT 3000 SHRA SCT009 BKN013 BKN020CB
11:00
M
19 °C 10 km+ 2.500 ft 210° 210° 16 kt METAR LFQQ 160900Z AUTO 21016KT 180V240 9999 BKN025/// BKN036/// BKN045/// //////CB 19/13 Q1010 TEMPO 23020G30KT 3000 SHRA SCT009 BKN013 BKN020CB
10:30
V
18 °C 10 km+ 3.100 ft 210° 210° 11 kt METAR LFQQ 160830Z AUTO 21011KT 180V240 9999 SCT024/// BKN031/// OVC039/// //////TCU 18/13 Q1010 TEMPO 23020G30KT 3000 SHRA SCT009 BKN013 BKN020CB
10:00
M
18 °C 10 km+ 2.200 ft 210° 210° 13 kt METAR LFQQ 160800Z AUTO 21013KT 180V240 9999 BKN022 OVC029 18/13 Q1010 TEMPO 23020G30KT 3000 SHRA SCT009 BKN013 BKN020CB
09:30
M
18 °C 10 km+ 1.900 ft 200° 200° 12 kt METAR LFQQ 160730Z AUTO 20012KT 9999 BKN019 OVC031 18/14 Q1010 TEMPO 23020G30KT 3000 SHRA SCT009 BKN013 BKN020CB
09:00
M
17 °C 10 km+ 1.700 ft 200° 200° 10 kt METAR LFQQ 160700Z AUTO 20010KT 9999 BKN017 BKN029 BKN070 17/14 Q1010 TEMPO BKN013
08:30
M
17 °C 10 km+ 2.300 ft 190° 190° 10 kt METAR LFQQ 160630Z AUTO 19010KT 9999 SCT014 BKN023 BKN074 17/14 Q1010 TEMPO BKN013
08:00
M
16 °C 10 km+ 2.300 ft 200° 200° 9 kt METAR LFQQ 160600Z AUTO 20009KT 9999 FEW001 BKN023 BKN074 16/14 Q1010 TEMPO BKN013
07:30
M
15 °C 10 km+ 2.200 ft 190° 190° 9 kt METAR LFQQ 160530Z AUTO 19009KT 9999 BKN022 15/14 Q1010 TEMPO 23017G27KT 4000 SHRA BKN020TCU
07:00
V
15 °C 10 km+ - 180° 180° 8 kt METAR LFQQ 160500Z AUTO 18008KT 9999 FEW024 15/13 Q1009 TEMPO 23017G27KT
06:30
V
14 °C 10 km+ - 180° 180° 6 kt METAR LFQQ 160430Z AUTO 18006KT CAVOK 14/13 Q1009 TEMPO 23017G27KT
06:00
V
14 °C 10 km+ - 190° 190° 5 kt METAR LFQQ 160400Z AUTO 19005KT CAVOK 14/13 Q1009 NOSIG
05:30
V
14 °C 10 km+ - 190° 190° 6 kt METAR LFQQ 160330Z AUTO 19006KT CAVOK 14/13 Q1009 NOSIG
05:00
V
15 °C 10 km+ - 200° 200° 8 kt METAR LFQQ 160300Z AUTO 20008KT CAVOK 15/13 Q1009 NOSIG
04:30
V
15 °C 10 km+ - 200° 200° 7 kt METAR LFQQ 160230Z AUTO 20007KT CAVOK 15/13 Q1009 NOSIG
04:00
V
15 °C 10 km+ - 210° 210° 7 kt METAR LFQQ 160200Z AUTO 21007KT CAVOK 15/13 Q1009 NOSIG
03:30
V
15 °C 10 km+ - 230° 230° 11 kt METAR LFQQ 160130Z AUTO 23011KT CAVOK 15/14 Q1008 NOSIG
03:00
V
16 °C 10 km+ - 230° 230° 11 kt METAR LFQQ 160100Z AUTO 23011KT CAVOK 16/14 Q1008 NOSIG
02:30
V
16 °C 10 km+ - 230° 230° 14 kt METAR LFQQ 160030Z AUTO 23014KT 200V260 9999 FEW017 16/14 Q1008 NOSIG
02:00
V
17 °C 10 km+ - 220° 220° 10 kt METAR LFQQ 160000Z AUTO 22010KT CAVOK 17/14 Q1008 NOSIG
01:30
V
17 °C 10 km+ - 230° 230° 10 kt METAR LFQQ 152330Z AUTO 23010KT 190V260 9999 FEW001 17/15 Q1008 NOSIG
01:00
V
17 °C 10 km+ 7.200 ft 240° 240° 4 kt METAR LFQQ 152300Z AUTO 24004KT 9999 FEW013/// BKN072/// //////TCU 17/16 Q1008 BECMG NSC
00:30
V
18 °C 10 km+ 4.800 ft 220° 220° 9 kt METAR LFQQ 152230Z AUTO 22009KT 180V240 9999 FEW017 SCT029 BKN048 18/17 Q1007 NOSIG
00:00
M
17 °C 7 km - 190° 190° 4 kt METAR LFQQ 152200Z AUTO 19004KT 7000 FEW047/// ///CB 17/17 Q1007 TEMPO 4000 SHRA BECMG NSC

15 de julio de 2024

Hora Código Tiempo Temp. Visibilidad Cielo nuboso Viento METAR/SPECI
23:30
V
18 °C 9 km - 190° 190° 4 kt METAR LFQQ 152130Z AUTO 19004KT 9000 NSC 18/17 Q1007 TEMPO 4000 SHRA BKN040CB
23:00
V
18 °C 10 km+ - 180° 180° 5 kt METAR LFQQ 152100Z AUTO 18005KT 150V210 CAVOK 18/18 Q1006 TEMPO 4000 SHRA BKN040CB
22:30
V
18 °C 9 km - 160° 160° 2 kt METAR LFQQ 152030Z AUTO 16002KT 9000 NSC 18/17 Q1006 TEMPO 4000 SHRA BKN040CB
22:00
V
19 °C 10 km+ - 120° 120° 4 kt METAR LFQQ 152000Z AUTO 12004KT CAVOK 19/17 Q1006 TEMPO 4000 SHRA BKN040CB BECMG 21010KT
21:30
V
20 °C 10 km+ - 080° 080° 3 kt METAR LFQQ 151930Z AUTO 08003KT CAVOK 20/17 Q1006 TEMPO 4000 SHRA BKN040CB BECMG 21010KT
21:00
V
20 °C 10 km+ - 070° 070° 4 kt METAR LFQQ 151900Z AUTO 07004KT CAVOK 20/17 Q1006 TEMPO 4000 SHRA BKN040CB BECMG 21010KT
20:30
V
21 °C 10 km+ - 090° 090° 4 kt METAR LFQQ 151830Z AUTO 09004KT 040V170 CAVOK 21/17 Q1006 TEMPO 4000 SHRA BKN040CB
20:00
V
21 °C 10 km+ 15.000 ft 020° 020° 7 kt METAR LFQQ 151800Z AUTO 02007KT 9999 FEW026/// BKN150/// ///TCU 21/18 Q1006 TEMPO 4000 SHRA BKN040CB
19:30
M
20 °C 7 km 5.600 ft 340° 340° 4 kt METAR LFQQ 151730Z AUTO 34004KT 300V010 7000 -RA FEW032/// SCT046/// BKN056/// ///CB 20/18 Q1006 TEMPO 4000 SHRA
19:00
V
21 °C 10 km+ - 310° 310° 6 kt METAR LFQQ 151700Z AUTO 31006KT 270V040 9999 ///CB 21/17 Q1007 TEMPO 4000 SHRA
18:30
V
22 °C 10 km+ - 050° 050° 5 kt METAR LFQQ 151630Z AUTO 05005KT 9999 ///CB 22/16 Q1006 TEMPO 4000 SHRA
18:00
V
21 °C 10 km+ 11.000 ft 020° 020° 6 kt METAR LFQQ 151600Z AUTO 02006KT 350V050 9999 FEW033 SCT092 BKN110 21/17 Q1007 TEMPO VRB15G25KT 4000 SHRA BKN040TCU
17:30
V
21 °C 10 km+ 4.900 ft 030° 030° 4 kt METAR LFQQ 151530Z AUTO 03004KT 9999 FEW031/// BKN049/// BKN068/// ///TCU 21/17 Q1007 TEMPO VRB15G25KT 4000 SHRA BKN035CB
17:00
V
22 °C 10 km+ - 280° 280° 6 kt METAR LFQQ 151500Z AUTO 28006KT 9999 -RA ///TCU 22/16 Q1008 TEMPO VRB15G25KT 2000 TSRA BKN035CB
16:30
V
23 °C 10 km+ 7.200 ft Var Var 2 kt METAR LFQQ 151430Z AUTO VRB02KT 9999 FEW033/// BKN072/// OVC090/// //////TCU 23/15 Q1009 TEMPO VRB15G25KT 2000 TSRA BKN035CB
16:00
V
24 °C 10 km+ 10.000 ft 070° 070° 3 kt METAR LFQQ 151400Z AUTO 07003KT 9999 FEW043 SCT070 OVC100 24/14 Q1008 TEMPO VRB15G25KT 2000 TSRA BKN035CB
15:30
V
24 °C 10 km+ - 090° 090° 5 kt METAR LFQQ 151330Z AUTO 09005KT CAVOK 24/13 Q1008 TEMPO VRB15G25KT 2000 TSRA BKN035CB
15:00
V
25 °C 10 km+ - 110° 110° 5 kt METAR LFQQ 151300Z AUTO 11005KT 060V130 CAVOK 25/13 Q1008 TEMPO VRB15G25KT 2000 TSRA BKN035CB
14:30
V
25 °C 10 km+ - 120° 120° 6 kt METAR LFQQ 151230Z AUTO 12006KT 080V170 CAVOK 25/13 Q1009 TEMPO VRB15G25KT 2000 TSRA BKN035CB
14:00
V
25 °C 10 km+ - 100° 100° 7 kt METAR LFQQ 151200Z AUTO 10007KT 060V130 CAVOK 25/13 Q1009 TEMPO 4000 SHRA BKN040TCU
13:30
V
25 °C 10 km+ - 130° 130° 6 kt METAR LFQQ 151130Z AUTO 13006KT 080V160 CAVOK 25/13 Q1009 TEMPO 4000 SHRA BKN040TCU
13:00
V
25 °C 10 km+ - 110° 110° 7 kt METAR LFQQ 151100Z AUTO 11007KT 080V140 CAVOK 25/13 Q1010 NOSIG
12:30
V
24 °C 10 km+ - 110° 110° 8 kt METAR LFQQ 151030Z AUTO 11008KT 070V140 CAVOK 24/12 Q1010 NOSIG
12:00
V
24 °C 10 km+ - 110° 110° 7 kt METAR LFQQ 151000Z AUTO 11007KT 060V150 CAVOK 24/12 Q1010 NOSIG
11:30
V
23 °C 10 km+ - 110° 110° 8 kt METAR LFQQ 150930Z AUTO 11008KT 070V150 CAVOK 23/13 Q1010 NOSIG
11:00
V
22 °C 10 km+ - 130° 130° 8 kt METAR LFQQ 150900Z AUTO 13008KT 090V160 CAVOK 22/14 Q1011 NOSIG
10:30
V
22 °C 10 km+ - 120° 120° 8 kt METAR LFQQ 150830Z AUTO 12008KT 090V150 CAVOK 22/14 Q1011 NOSIG
10:00
V
20 °C 10 km+ - 130° 130° 6 kt METAR LFQQ 150800Z AUTO 13006KT 100V170 CAVOK 20/14 Q1011 NOSIG
09:30
V
19 °C 10 km+ - 140° 140° 5 kt METAR LFQQ 150730Z AUTO 14005KT CAVOK 19/14 Q1011 NOSIG
09:00
V
18 °C 10 km+ - 140° 140° 5 kt METAR LFQQ 150700Z AUTO 14005KT CAVOK 18/14 Q1011 NOSIG
08:30
V
17 °C 10 km+ - 140° 140° 5 kt METAR LFQQ 150630Z AUTO 14005KT CAVOK 17/13 Q1012 NOSIG
08:00
V
16 °C 10 km+ - 130° 130° 4 kt METAR LFQQ 150600Z AUTO 13004KT CAVOK 16/14 Q1012 NOSIG
Cambiar esta información